createdAt,value
2023-02-01T00:02:21.070Z,3.33
2023-02-01T00:06:03.979Z,3.36
2023-02-01T00:09:48.365Z,3.37
2023-02-01T00:13:31.820Z,3.38
2023-02-01T00:17:14.688Z,3.42
2023-02-01T00:20:57.365Z,3.45
2023-02-01T00:24:40.098Z,3.48
2023-02-01T00:28:24.255Z,3.45
2023-02-01T00:32:07.037Z,3.47
2023-02-01T00:35:49.815Z,3.51
2023-02-01T00:39:32.537Z,3.53
2023-02-01T00:43:15.228Z,3.45
2023-02-01T00:46:59.319Z,3.39
2023-02-01T00:50:43.793Z,3.17
2023-02-01T00:54:26.638Z,3.15
2023-02-01T00:58:10.440Z,3.10
2023-02-01T01:01:53.185Z,3.03
2023-02-01T01:05:37.247Z,2.93
2023-02-01T01:09:19.929Z,2.85
2023-02-01T01:13:02.642Z,2.84
2023-02-01T01:16:45.389Z,2.88
2023-02-01T01:20:28.154Z,2.87
2023-02-01T01:24:12.307Z,2.87
2023-02-01T01:27:55.117Z,2.95
2023-02-01T01:31:37.957Z,2.92
2023-02-01T01:35:20.775Z,2.96
2023-02-01T01:39:03.577Z,2.88
2023-02-01T01:42:47.831Z,2.93
2023-02-01T01:46:32.155Z,2.82
2023-02-01T01:50:19.322Z,2.74
2023-02-01T01:54:04.625Z,2.62
2023-02-01T01:57:53.888Z,2.61
2023-02-01T02:01:36.739Z,2.54
2023-02-01T02:05:20.198Z,2.50
2023-02-01T02:09:04.755Z,2.47
2023-02-01T02:12:51.133Z,2.42
2023-02-01T02:16:43.879Z,2.44
2023-02-01T02:20:55.491Z,2.45
2023-02-01T02:25:03.058Z,2.48
2023-02-01T02:29:17.758Z,2.39
2023-02-01T02:33:26.745Z,2.40
2023-02-01T02:37:18.010Z,2.40
2023-02-01T02:41:07.568Z,2.44
2023-02-01T02:45:10.093Z,2.41
2023-02-01T02:48:57.137Z,2.50
2023-02-01T02:52:58.912Z,2.62
2023-02-01T02:56:59.938Z,2.60
2023-02-01T03:01:01.963Z,2.62
2023-02-01T03:04:46.057Z,2.69
2023-02-01T03:08:30.535Z,2.68
2023-02-01T03:12:32.551Z,2.68
2023-02-01T03:16:17.773Z,2.61
2023-02-01T03:20:03.496Z,2.64
2023-02-01T03:23:46.710Z,2.70
2023-02-01T03:27:33.410Z,2.73
2023-02-01T03:31:16.106Z,2.81
2023-02-01T03:34:58.842Z,2.83
2023-02-01T03:38:49.005Z,2.84
2023-02-01T03:42:35.850Z,2.86
2023-02-01T03:46:23.350Z,2.82
2023-02-01T03:50:08.650Z,2.83
2023-02-01T03:53:54.368Z,2.86
2023-02-01T03:57:40.609Z,2.92
2023-02-01T04:01:23.395Z,2.89
2023-02-01T04:05:06.909Z,2.89
2023-02-01T04:08:49.591Z,2.95
2023-02-01T04:12:33.782Z,2.95
2023-02-01T04:16:16.597Z,2.94
2023-02-01T04:19:59.239Z,2.91
2023-02-01T04:23:41.879Z,2.95
2023-02-01T04:31:07.791Z,2.92
2023-02-01T04:34:50.481Z,2.91
2023-02-01T04:38:35.876Z,2.92
2023-02-01T04:42:18.536Z,2.94
2023-02-01T04:46:03.241Z,2.95
2023-02-01T04:49:47.263Z,2.94
2023-02-01T04:53:30.744Z,2.91
2023-02-01T04:57:14.476Z,2.94
2023-02-01T05:00:57.178Z,2.96
2023-02-01T05:04:39.995Z,2.97
2023-02-01T05:08:27.930Z,2.92
2023-02-01T05:12:29.322Z,3.00
2023-02-01T05:16:12.105Z,2.94
2023-02-01T05:19:54.896Z,2.83
2023-02-01T05:23:59.399Z,2.91
2023-02-01T05:27:42.127Z,2.92
2023-02-01T05:31:24.866Z,2.96
2023-02-01T05:35:08.707Z,2.96
2023-02-01T05:38:52.786Z,3.01
2023-02-01T05:42:38.609Z,2.98
2023-02-01T05:46:21.397Z,3.07
2023-02-01T05:50:05.073Z,3.00
2023-02-01T05:53:47.753Z,3.06
2023-02-01T05:57:32.036Z,3.05
2023-02-01T06:01:14.701Z,3.02
2023-02-01T06:05:00.128Z,3.04
2023-02-01T06:08:42.821Z,3.02
2023-02-01T06:12:25.443Z,3.03
2023-02-01T06:16:09.773Z,3.02
2023-02-01T06:19:53.293Z,3.00
2023-02-01T06:23:36.871Z,3.05
2023-02-01T06:27:19.562Z,3.06
2023-02-01T06:31:07.619Z,3.03
2023-02-01T06:34:53.431Z,2.94
2023-02-01T06:38:37.078Z,3.01
2023-02-01T06:42:19.751Z,2.98
2023-02-01T06:46:03.276Z,3.03
2023-02-01T06:49:45.929Z,3.03
2023-02-01T06:53:30.294Z,3.05
2023-02-01T06:57:13.848Z,3.06
2023-02-01T07:00:56.607Z,3.12
2023-02-01T07:04:39.363Z,3.06
2023-02-01T07:08:22.001Z,3.12
2023-02-01T07:12:06.736Z,3.14
2023-02-01T07:15:49.490Z,3.15
2023-02-01T07:19:32.325Z,3.10
2023-02-01T07:23:15.069Z,3.12
2023-02-01T07:26:57.773Z,3.13
2023-02-01T07:30:42.712Z,3.17
2023-02-01T07:34:25.626Z,3.14
2023-02-01T07:38:11.253Z,3.20
2023-02-01T07:41:53.931Z,3.23
2023-02-01T07:45:37.299Z,3.28
2023-02-01T07:49:21.410Z,3.26
2023-02-01T07:53:04.122Z,3.28
2023-02-01T07:56:46.828Z,3.32
2023-02-01T08:00:47.079Z,3.36
2023-02-01T08:04:31.855Z,3.39
2023-02-01T08:08:14.553Z,3.39
2023-02-01T08:11:57.229Z,3.49
2023-02-01T08:15:40.309Z,3.53
2023-02-01T08:19:23.028Z,3.55
2023-02-01T08:23:10.016Z,3.63
2023-02-01T08:26:52.826Z,3.68
2023-02-01T08:30:35.708Z,3.81
2023-02-01T08:34:18.529Z,3.79
2023-02-01T08:38:01.226Z,3.81
2023-02-01T08:42:05.263Z,3.88
2023-02-01T08:45:47.972Z,3.90
2023-02-01T08:49:30.897Z,3.96
2023-02-01T08:53:14.998Z,4.00
2023-02-01T08:56:59.314Z,4.02
2023-02-01T09:00:42.223Z,4.05
2023-02-01T09:04:24.999Z,4.09
2023-02-01T09:08:07.923Z,4.13
2023-02-01T09:11:51.266Z,4.13
2023-02-01T09:15:35.575Z,4.16
2023-02-01T09:19:27.115Z,4.11
2023-02-01T09:23:10.029Z,4.18
2023-02-01T09:26:53.689Z,4.26
2023-02-01T09:30:38.485Z,4.29
2023-02-01T09:34:21.305Z,4.29
2023-02-01T09:38:06.768Z,4.41
2023-02-01T09:41:56.287Z,4.40
2023-02-01T09:45:48.053Z,4.40
2023-02-01T09:49:33.132Z,4.35
2023-02-01T09:53:24.038Z,4.29
2023-02-01T09:57:10.985Z,4.40
2023-02-01T10:00:56.444Z,4.50
2023-02-01T10:04:39.216Z,4.54
2023-02-01T10:08:28.204Z,4.43
2023-02-01T10:12:30.224Z,4.32
2023-02-01T10:16:26.632Z,4.37
2023-02-01T10:20:14.569Z,4.44
2023-02-01T10:24:17.429Z,4.41
2023-02-01T10:28:02.841Z,4.42
2023-02-01T10:31:47.487Z,4.36
2023-02-01T10:35:33.582Z,4.38
2023-02-01T10:39:16.409Z,4.37
2023-02-01T10:43:01.128Z,4.40
2023-02-01T10:46:44.028Z,4.39
2023-02-01T10:50:40.175Z,4.40
2023-02-01T10:54:24.409Z,4.31
2023-02-01T10:58:09.268Z,4.21
2023-02-01T11:01:59.752Z,4.19
2023-02-01T11:05:47.172Z,4.39
2023-02-01T11:09:29.940Z,4.22
2023-02-01T11:13:17.165Z,4.28
2023-02-01T11:17:01.946Z,4.26
2023-02-01T11:20:44.931Z,4.33
2023-02-01T11:24:31.301Z,4.40
2023-02-01T11:28:14.460Z,4.42
2023-02-01T11:31:58.740Z,4.33
2023-02-01T11:35:41.985Z,4.29
2023-02-01T11:39:27.764Z,4.26
2023-02-01T11:43:16.275Z,4.24
2023-02-01T11:47:20.439Z,4.16
2023-02-01T11:51:15.229Z,4.12
2023-02-01T11:55:09.178Z,4.12
2023-02-01T11:59:14.437Z,4.08
2023-02-01T12:03:25.324Z,4.10
2023-02-01T12:07:13.789Z,4.10
2023-02-01T12:11:33.289Z,4.12
2023-02-01T12:15:29.886Z,4.04
2023-02-01T12:19:22.942Z,3.99
2023-02-01T12:23:16.435Z,3.96
2023-02-01T12:27:12.676Z,4.19
2023-02-01T12:31:14.228Z,4.06
2023-02-01T12:35:15.613Z,3.89
2023-02-01T12:39:05.101Z,3.82
2023-02-01T12:42:53.507Z,3.80
2023-02-01T12:46:42.392Z,3.77
2023-02-01T12:50:29.677Z,3.80
2023-02-01T12:54:15.834Z,3.80
2023-02-01T12:58:05.813Z,3.81
2023-02-01T13:01:53.329Z,3.93
2023-02-01T13:05:42.315Z,4.00
2023-02-01T13:09:28.513Z,3.97
2023-02-01T13:13:16.834Z,4.04
2023-02-01T13:17:03.058Z,4.08
2023-02-01T13:20:51.546Z,4.02
2023-02-01T13:24:39.171Z,3.96
2023-02-01T13:28:26.795Z,3.99
2023-02-01T13:33:51.324Z,3.97
2023-02-01T13:36:58.493Z,4.00
2023-02-01T13:40:43.417Z,4.02
2023-02-01T13:44:30.790Z,4.10
2023-02-01T13:48:23.136Z,4.14
2023-02-01T13:52:06.176Z,4.16
2023-02-01T13:55:52.564Z,4.12
2023-02-01T13:59:50.681Z,4.17
2023-02-01T14:03:47.105Z,4.17
2023-02-01T14:07:29.816Z,4.12
2023-02-01T14:11:35.816Z,3.98
2023-02-01T14:15:25.114Z,4.05
2023-02-01T14:19:21.623Z,3.99
2023-02-01T14:23:04.744Z,3.95
2023-02-01T14:26:49.075Z,3.91
2023-02-01T14:30:32.006Z,3.88
2023-02-01T14:34:19.333Z,3.88
2023-02-01T14:38:03.872Z,3.90
2023-02-01T14:41:48.424Z,3.86
2023-02-01T14:45:52.344Z,3.84
2023-02-01T14:49:39.813Z,3.81
2023-02-01T14:53:25.686Z,3.83
2023-02-01T14:57:15.435Z,3.81
2023-02-01T15:01:00.151Z,3.89
2023-02-01T15:04:45.022Z,3.88
2023-02-01T15:08:30.836Z,3.92
2023-02-01T15:12:21.340Z,3.93
2023-02-01T15:16:12.497Z,3.95
2023-02-01T15:19:57.591Z,3.91
2023-02-01T15:23:40.326Z,3.85
2023-02-01T15:27:23.164Z,3.69
2023-02-01T15:31:07.365Z,3.58
2023-02-01T15:34:51.716Z,3.52
2023-02-01T15:38:41.300Z,3.44
2023-02-01T15:42:24.025Z,3.36
2023-02-01T15:46:11.043Z,3.39
2023-02-01T15:49:55.404Z,3.32
2023-02-01T15:53:39.506Z,3.38
2023-02-01T15:57:23.924Z,3.36
2023-02-01T16:01:07.895Z,3.27
2023-02-01T16:04:51.903Z,3.26
2023-02-01T16:08:35.651Z,3.30
2023-02-01T16:12:30.056Z,3.25
2023-02-01T16:16:14.973Z,3.35
2023-02-01T16:19:58.203Z,3.34
2023-02-01T16:23:40.896Z,3.34
2023-02-01T16:27:24.908Z,3.31
2023-02-01T16:31:09.412Z,3.31
2023-02-01T16:34:54.304Z,3.35
2023-02-01T16:38:37.008Z,3.36
2023-02-01T16:42:19.843Z,3.45
2023-02-01T16:46:04.632Z,3.51
2023-02-01T16:49:47.457Z,3.46
2023-02-01T16:53:33.055Z,3.55
2023-02-01T16:57:20.761Z,3.51
2023-02-01T17:01:04.915Z,3.53
2023-02-01T17:04:48.842Z,3.61
2023-02-01T17:08:35.289Z,3.65
2023-02-01T17:12:24.040Z,3.69
2023-02-01T17:16:14.870Z,3.75
2023-02-01T17:19:57.585Z,3.74
2023-02-01T17:23:41.072Z,3.82
2023-02-01T17:27:23.831Z,3.82
2023-02-01T17:31:07.971Z,3.79
2023-02-01T17:34:50.822Z,3.81
2023-02-01T17:38:34.420Z,3.81
2023-02-01T17:42:17.149Z,3.79
2023-02-01T17:46:01.475Z,3.78
2023-02-01T17:49:45.602Z,3.78
2023-02-01T17:53:29.447Z,3.86
2023-02-01T17:57:13.870Z,3.83
2023-02-01T18:00:56.566Z,3.84
2023-02-01T18:04:39.237Z,3.89
2023-02-01T18:08:25.854Z,3.94
2023-02-01T18:12:16.223Z,3.92
2023-02-01T18:15:59.937Z,3.90
2023-02-01T18:19:42.904Z,3.88
2023-02-01T18:23:26.964Z,3.90
2023-02-01T18:27:09.951Z,3.91
2023-02-01T18:30:52.765Z,3.95
2023-02-01T18:34:35.488Z,3.96
2023-02-01T18:38:18.336Z,3.97
2023-02-01T18:42:02.373Z,3.97
2023-02-01T18:45:46.195Z,3.99
2023-02-01T18:49:28.885Z,3.98
2023-02-01T18:53:14.260Z,3.94
2023-02-01T18:56:56.922Z,3.95
2023-02-01T19:00:40.994Z,3.95
2023-02-01T19:04:26.118Z,3.94
2023-02-01T19:08:11.491Z,3.94
2023-02-01T19:11:54.483Z,3.89
2023-02-01T19:15:40.319Z,3.89
2023-02-01T19:19:24.514Z,3.87
2023-02-01T19:23:07.197Z,3.90
2023-02-01T19:26:51.387Z,3.90
2023-02-01T19:30:34.240Z,3.89
2023-02-01T19:34:16.994Z,3.87
2023-02-01T19:38:01.274Z,3.88
2023-02-01T19:41:43.894Z,3.85
2023-02-01T19:45:26.767Z,3.84
2023-02-01T19:49:12.182Z,3.85
2023-02-01T19:52:54.877Z,3.82
2023-02-01T19:56:39.334Z,3.83
2023-02-01T20:00:22.496Z,3.80
2023-02-01T20:04:06.440Z,3.87
2023-02-01T20:07:49.162Z,3.92
2023-02-01T20:11:32.000Z,3.91
2023-02-01T20:15:16.269Z,3.91
2023-02-01T20:18:59.003Z,3.88
2023-02-01T20:22:41.779Z,3.97
2023-02-01T20:26:25.907Z,3.97
2023-02-01T20:30:10.056Z,3.97
2023-02-01T20:33:54.182Z,4.00
2023-02-01T20:37:37.739Z,4.06
2023-02-01T20:41:20.675Z,4.08
2023-02-01T20:45:04.007Z,4.03
2023-02-01T20:48:48.234Z,4.07
2023-02-01T20:52:32.218Z,4.06
2023-02-01T20:56:15.745Z,4.07
2023-02-01T20:59:59.637Z,4.01
2023-02-01T21:03:43.144Z,4.07
2023-02-01T21:07:25.854Z,4.04
2023-02-01T21:11:11.343Z,3.99
2023-02-01T21:14:55.226Z,3.94
2023-02-01T21:18:38.533Z,3.94
2023-02-01T21:22:21.214Z,3.89
2023-02-01T21:26:04.607Z,3.95
2023-02-01T21:29:49.353Z,3.94
2023-02-01T21:33:32.142Z,3.90
2023-02-01T21:37:15.141Z,3.92
2023-02-01T21:41:16.346Z,3.87
2023-02-01T21:45:02.291Z,3.75
2023-02-01T21:49:04.150Z,3.78
2023-02-01T21:52:48.031Z,3.76
2023-02-01T21:56:31.185Z,3.77
2023-02-01T22:00:17.357Z,3.96
2023-02-01T22:04:01.283Z,3.94
2023-02-01T22:07:44.422Z,3.83
2023-02-01T22:11:27.246Z,3.79
2023-02-01T22:15:10.704Z,3.82
2023-02-01T22:18:55.478Z,3.74
2023-02-01T22:22:38.113Z,3.81
2023-02-01T22:26:21.285Z,3.77
2023-02-01T22:30:04.030Z,3.77
2023-02-01T22:33:47.108Z,3.77
2023-02-01T22:37:31.121Z,3.76
2023-02-01T22:41:14.063Z,3.76
2023-02-01T22:44:58.395Z,3.77
2023-02-01T22:48:42.359Z,3.81
2023-02-01T22:52:25.036Z,3.75
2023-02-01T22:56:09.150Z,3.69
2023-02-01T22:59:51.820Z,3.67
2023-02-01T23:03:35.175Z,3.64
2023-02-01T23:07:17.937Z,3.59
2023-02-01T23:11:01.589Z,3.60
2023-02-01T23:14:59.563Z,3.56
2023-02-01T23:18:42.605Z,3.58
2023-02-01T23:22:25.314Z,3.56
2023-02-01T23:26:08.327Z,3.63
2023-02-01T23:29:52.309Z,3.61
2023-02-01T23:33:34.950Z,3.64
2023-02-01T23:37:17.763Z,3.63
2023-02-01T23:41:01.657Z,3.66
2023-02-01T23:44:44.337Z,3.64
2023-02-01T23:48:30.478Z,3.64
2023-02-01T23:52:13.232Z,3.72
2023-02-01T23:56:01.897Z,3.71
2023-02-01T23:59:44.846Z,3.75
